sensor_id;sensor_type;location;lat;lon;timestamp;P1;durP1;ratioP1;P2;durP2;ratioP2
17947;SDS011;9099;47.958;11.366;2022-11-20T00:01:04;1.52;;;0.75;;
17947;SDS011;9099;47.958;11.366;2022-11-20T00:03:31;0.77;;;0.77;;
17947;SDS011;9099;47.958;11.366;2022-11-20T00:05:59;0.80;;;0.80;;
17947;SDS011;9099;47.958;11.366;2022-11-20T00:08:26;1.10;;;0.85;;
17947;SDS011;9099;47.958;11.366;2022-11-20T00:10:54;1.10;;;1.00;;
17947;SDS011;9099;47.958;11.366;2022-11-20T00:13:21;1.10;;;1.10;;
17947;SDS011;9099;47.958;11.366;2022-11-20T00:15:48;1.13;;;1.13;;
17947;SDS011;9099;47.958;11.366;2022-11-20T00:18:22;1.00;;;0.88;;
17947;SDS011;9099;47.958;11.366;2022-11-20T00:20:49;0.82;;;0.82;;
17947;SDS011;9099;47.958;11.366;2022-11-20T00:23:16;1.10;;;1.00;;
17947;SDS011;9099;47.958;11.366;2022-11-20T00:25:42;1.10;;;1.05;;
17947;SDS011;9099;47.958;11.366;2022-11-20T00:28:10;1.05;;;1.05;;
17947;SDS011;9099;47.958;11.366;2022-11-20T00:30:37;1.17;;;1.08;;
17947;SDS011;9099;47.958;11.366;2022-11-20T00:33:04;1.02;;;1.02;;
17947;SDS011;9099;47.958;11.366;2022-11-20T00:35:31;1.10;;;1.00;;
17947;SDS011;9099;47.958;11.366;2022-11-20T00:37:58;1.17;;;1.10;;
17947;SDS011;9099;47.958;11.366;2022-11-20T00:40:25;1.00;;;1.00;;
17947;SDS011;9099;47.958;11.366;2022-11-20T00:42:51;0.98;;;0.98;;
17947;SDS011;9099;47.958;11.366;2022-11-20T00:45:20;1.27;;;1.20;;
17947;SDS011;9099;47.958;11.366;2022-11-20T00:47:46;1.25;;;1.15;;
17947;SDS011;9099;47.958;11.366;2022-11-20T00:50:13;1.48;;;1.25;;
17947;SDS011;9099;47.958;11.366;2022-11-20T00:52:40;1.92;;;1.10;;
17947;SDS011;9099;47.958;11.366;2022-11-20T00:55:07;1.45;;;1.10;;
17947;SDS011;9099;47.958;11.366;2022-11-20T00:57:34;1.20;;;1.10;;
17947;SDS011;9099;47.958;11.366;2022-11-20T01:00:01;1.10;;;1.10;;
17947;SDS011;9099;47.958;11.366;2022-11-20T01:02:29;1.23;;;1.00;;
17947;SDS011;9099;47.958;11.366;2022-11-20T01:04:56;1.08;;;1.08;;
17947;SDS011;9099;47.958;11.366;2022-11-20T01:07:23;1.00;;;1.00;;
17947;SDS011;9099;47.958;11.366;2022-11-20T01:09:50;2.08;;;1.13;;
17947;SDS011;9099;47.958;11.366;2022-11-20T01:12:16;0.90;;;0.90;;
17947;SDS011;9099;47.958;11.366;2022-11-20T01:14:43;1.25;;;1.10;;
17947;SDS011;9099;47.958;11.366;2022-11-20T01:17:10;1.20;;;1.10;;
17947;SDS011;9099;47.958;11.366;2022-11-20T01:19:38;1.10;;;1.10;;
17947;SDS011;9099;47.958;11.366;2022-11-20T01:22:05;0.95;;;0.95;;
17947;SDS011;9099;47.958;11.366;2022-11-20T01:24:32;1.20;;;1.10;;
17947;SDS011;9099;47.958;11.366;2022-11-20T01:26:59;0.90;;;0.90;;
17947;SDS011;9099;47.958;11.366;2022-11-20T01:29:26;1.08;;;1.08;;
17947;SDS011;9099;47.958;11.366;2022-11-20T01:31:52;1.33;;;1.20;;
17947;SDS011;9099;47.958;11.366;2022-11-20T01:34:20;0.90;;;0.90;;
17947;SDS011;9099;47.958;11.366;2022-11-20T01:36:49;1.40;;;1.30;;
17947;SDS011;9099;47.958;11.366;2022-11-20T01:39:18;1.65;;;1.20;;
17947;SDS011;9099;47.958;11.366;2022-11-20T01:41:46;1.20;;;1.10;;
17947;SDS011;9099;47.958;11.366;2022-11-20T01:47:25;1.40;;;1.30;;
17947;SDS011;9099;47.958;11.366;2022-11-20T01:49:56;1.40;;;1.30;;
17947;SDS011;9099;47.958;11.366;2022-11-20T01:52:29;1.48;;;1.38;;
17947;SDS011;9099;47.958;11.366;2022-11-20T01:55:00;2.08;;;1.35;;
17947;SDS011;9099;47.958;11.366;2022-11-20T01:57:31;1.33;;;1.20;;
17947;SDS011;9099;47.958;11.366;2022-11-20T02:00:00;1.50;;;1.40;;
17947;SDS011;9099;47.958;11.366;2022-11-20T02:02:31;1.40;;;1.30;;
17947;SDS011;9099;47.958;11.366;2022-11-20T02:05:01;1.38;;;1.30;;
17947;SDS011;9099;47.958;11.366;2022-11-20T02:07:36;1.40;;;1.30;;
17947;SDS011;9099;47.958;11.366;2022-11-20T02:10:04;1.30;;;1.20;;
17947;SDS011;9099;47.958;11.366;2022-11-20T02:12:31;1.35;;;1.25;;
17947;SDS011;9099;47.958;11.366;2022-11-20T02:15:16;1.38;;;1.27;;
17947;SDS011;9099;47.958;11.366;2022-11-20T02:17:43;1.40;;;1.17;;
17947;SDS011;9099;47.958;11.366;2022-11-20T02:20:10;1.60;;;1.50;;
17947;SDS011;9099;47.958;11.366;2022-11-20T02:22:41;2.08;;;1.70;;
17947;SDS011;9099;47.958;11.366;2022-11-20T02:25:16;1.60;;;1.50;;
17947;SDS011;9099;47.958;11.366;2022-11-20T02:27:44;1.63;;;1.52;;
17947;SDS011;9099;47.958;11.366;2022-11-20T02:30:11;1.92;;;1.77;;
17947;SDS011;9099;47.958;11.366;2022-11-20T02:32:39;1.95;;;1.67;;
17947;SDS011;9099;47.958;11.366;2022-11-20T02:35:06;1.80;;;1.70;;
17947;SDS011;9099;47.958;11.366;2022-11-20T02:37:35;1.95;;;1.85;;
17947;SDS011;9099;47.958;11.366;2022-11-20T02:40:06;2.08;;;1.98;;
17947;SDS011;9099;47.958;11.366;2022-11-20T02:42:35;1.95;;;1.77;;
17947;SDS011;9099;47.958;11.366;2022-11-20T02:45:02;1.77;;;1.48;;
17947;SDS011;9099;47.958;11.366;2022-11-20T02:47:30;1.83;;;1.73;;
17947;SDS011;9099;47.958;11.366;2022-11-20T02:49:57;1.92;;;1.83;;
17947;SDS011;9099;47.958;11.366;2022-11-20T02:52:24;2.40;;;1.88;;
17947;SDS011;9099;47.958;11.366;2022-11-20T02:54:52;2.38;;;2.03;;
17947;SDS011;9099;47.958;11.366;2022-11-20T02:57:19;1.90;;;1.80;;
17947;SDS011;9099;47.958;11.366;2022-11-20T02:59:47;2.08;;;1.80;;
17947;SDS011;9099;47.958;11.366;2022-11-20T03:02:14;2.38;;;2.20;;
17947;SDS011;9099;47.958;11.366;2022-11-20T03:04:41;2.47;;;2.00;;
17947;SDS011;9099;47.958;11.366;2022-11-20T03:07:08;2.50;;;2.30;;
17947;SDS011;9099;47.958;11.366;2022-11-20T03:09:35;3.42;;;2.67;;
17947;SDS011;9099;47.958;11.366;2022-11-20T03:12:02;2.70;;;2.50;;
17947;SDS011;9099;47.958;11.366;2022-11-20T03:14:29;2.55;;;2.35;;
17947;SDS011;9099;47.958;11.366;2022-11-20T03:16:58;2.53;;;2.33;;
17947;SDS011;9099;47.958;11.366;2022-11-20T03:19:24;2.63;;;2.42;;
17947;SDS011;9099;47.958;11.366;2022-11-20T03:21:51;2.45;;;2.25;;
17947;SDS011;9099;47.958;11.366;2022-11-20T03:24:18;2.70;;;2.50;;
17947;SDS011;9099;47.958;11.366;2022-11-20T03:26:45;2.65;;;2.30;;
17947;SDS011;9099;47.958;11.366;2022-11-20T03:29:12;2.70;;;2.50;;
17947;SDS011;9099;47.958;11.366;2022-11-20T03:31:39;2.90;;;2.35;;
17947;SDS011;9099;47.958;11.366;2022-11-20T03:34:08;2.53;;;2.33;;
17947;SDS011;9099;47.958;11.366;2022-11-20T03:36:37;2.55;;;2.40;;
17947;SDS011;9099;47.958;11.366;2022-11-20T03:39:04;2.22;;;2.00;;
17947;SDS011;9099;47.958;11.366;2022-11-20T03:41:35;2.20;;;2.00;;
17947;SDS011;9099;47.958;11.366;2022-11-20T03:44:04;2.88;;;2.10;;
17947;SDS011;9099;47.958;11.366;2022-11-20T03:46:31;1.90;;;1.80;;
17947;SDS011;9099;47.958;11.366;2022-11-20T03:48:58;1.95;;;1.85;;
17947;SDS011;9099;47.958;11.366;2022-11-20T03:51:30;1.77;;;1.67;;
17947;SDS011;9099;47.958;11.366;2022-11-20T03:53:59;2.10;;;1.75;;
17947;SDS011;9099;47.958;11.366;2022-11-20T03:56:27;1.80;;;1.67;;
17947;SDS011;9099;47.958;11.366;2022-11-20T03:58:56;2.42;;;2.22;;
17947;SDS011;9099;47.958;11.366;2022-11-20T04:01:24;2.47;;;2.30;;
17947;SDS011;9099;47.958;11.366;2022-11-20T04:03:53;2.05;;;1.90;;
17947;SDS011;9099;47.958;11.366;2022-11-20T04:06:22;2.00;;;1.90;;
17947;SDS011;9099;47.958;11.366;2022-11-20T04:08:53;1.85;;;1.75;;
17947;SDS011;9099;47.958;11.366;2022-11-20T04:11:21;1.65;;;1.55;;
17947;SDS011;9099;47.958;11.366;2022-11-20T04:13:50;2.10;;;2.00;;
17947;SDS011;9099;47.958;11.366;2022-11-20T04:16:18;2.58;;;2.08;;
17947;SDS011;9099;47.958;11.366;2022-11-20T04:18:45;2.33;;;2.13;;
17947;SDS011;9099;47.958;11.366;2022-11-20T04:21:12;2.60;;;2.40;;
17947;SDS011;9099;47.958;11.366;2022-11-20T04:23:39;2.30;;;2.10;;
17947;SDS011;9099;47.958;11.366;2022-11-20T04:26:08;2.33;;;2.22;;
17947;SDS011;9099;47.958;11.366;2022-11-20T04:28:36;2.35;;;2.25;;
17947;SDS011;9099;47.958;11.366;2022-11-20T04:31:04;2.60;;;2.40;;
17947;SDS011;9099;47.958;11.366;2022-11-20T04:33:32;2.70;;;2.50;;
17947;SDS011;9099;47.958;11.366;2022-11-20T04:36:01;2.45;;;2.30;;
17947;SDS011;9099;47.958;11.366;2022-11-20T04:38:28;2.38;;;2.28;;
17947;SDS011;9099;47.958;11.366;2022-11-20T04:40:56;2.63;;;2.42;;
17947;SDS011;9099;47.958;11.366;2022-11-20T04:43:26;3.35;;;2.80;;
17947;SDS011;9099;47.958;11.366;2022-11-20T04:45:53;2.60;;;2.50;;
17947;SDS011;9099;47.958;11.366;2022-11-20T04:48:21;2.80;;;2.60;;
17947;SDS011;9099;47.958;11.366;2022-11-20T04:50:48;2.67;;;2.47;;
17947;SDS011;9099;47.958;11.366;2022-11-20T04:53:15;2.88;;;2.67;;
17947;SDS011;9099;47.958;11.366;2022-11-20T04:55:42;2.80;;;2.60;;
17947;SDS011;9099;47.958;11.366;2022-11-20T04:58:09;2.88;;;2.67;;
17947;SDS011;9099;47.958;11.366;2022-11-20T05:00:38;3.40;;;2.45;;
17947;SDS011;9099;47.958;11.366;2022-11-20T05:03:05;2.75;;;2.42;;
17947;SDS011;9099;47.958;11.366;2022-11-20T05:05:32;2.97;;;2.80;;
17947;SDS011;9099;47.958;11.366;2022-11-20T05:08:00;2.50;;;2.30;;
17947;SDS011;9099;47.958;11.366;2022-11-20T05:10:27;3.15;;;2.92;;
17947;SDS011;9099;47.958;11.366;2022-11-20T05:12:54;3.22;;;2.95;;
17947;SDS011;9099;47.958;11.366;2022-11-20T05:15:21;3.10;;;2.90;;
17947;SDS011;9099;47.958;11.366;2022-11-20T05:17:49;3.30;;;3.10;;
17947;SDS011;9099;47.958;11.366;2022-11-20T05:20:16;3.88;;;3.58;;
17947;SDS011;9099;47.958;11.366;2022-11-20T05:22:43;3.10;;;2.90;;
17947;SDS011;9099;47.958;11.366;2022-11-20T05:25:10;3.05;;;2.85;;
17947;SDS011;9099;47.958;11.366;2022-11-20T05:27:38;5.07;;;3.10;;
17947;SDS011;9099;47.958;11.366;2022-11-20T05:30:05;3.13;;;2.92;;
17947;SDS011;9099;47.958;11.366;2022-11-20T05:32:33;3.63;;;3.35;;
17947;SDS011;9099;47.958;11.366;2022-11-20T05:35:01;3.28;;;3.08;;
17947;SDS011;9099;47.958;11.366;2022-11-20T05:37:28;3.25;;;2.47;;
17947;SDS011;9099;47.958;11.366;2022-11-20T05:39:55;2.80;;;2.60;;
17947;SDS011;9099;47.958;11.366;2022-11-20T05:42:22;2.75;;;2.30;;
17947;SDS011;9099;47.958;11.366;2022-11-20T05:44:58;3.10;;;2.40;;
17947;SDS011;9099;47.958;11.366;2022-11-20T05:47:25;2.67;;;2.47;;
17947;SDS011;9099;47.958;11.366;2022-11-20T05:49:52;2.13;;;2.03;;
17947;SDS011;9099;47.958;11.366;2022-11-20T05:52:20;2.70;;;2.50;;
17947;SDS011;9099;47.958;11.366;2022-11-20T05:54:47;1.80;;;1.70;;
17947;SDS011;9099;47.958;11.366;2022-11-20T05:57:14;2.03;;;1.92;;
17947;SDS011;9099;47.958;11.366;2022-11-20T05:59:41;2.20;;;2.00;;
17947;SDS011;9099;47.958;11.366;2022-11-20T06:02:08;2.10;;;2.00;;
17947;SDS011;9099;47.958;11.366;2022-11-20T06:04:35;2.35;;;2.15;;
17947;SDS011;9099;47.958;11.366;2022-11-20T06:07:01;2.10;;;1.88;;
17947;SDS011;9099;47.958;11.366;2022-11-20T06:09:30;1.83;;;1.73;;
17947;SDS011;9099;47.958;11.366;2022-11-20T06:11:56;2.00;;;1.65;;
17947;SDS011;9099;47.958;11.366;2022-11-20T06:14:23;2.20;;;2.00;;
17947;SDS011;9099;47.958;11.366;2022-11-20T06:16:50;1.92;;;1.77;;
17947;SDS011;9099;47.958;11.366;2022-11-20T06:19:17;2.35;;;2.08;;
17947;SDS011;9099;47.958;11.366;2022-11-20T06:21:44;2.50;;;2.30;;
17947;SDS011;9099;47.958;11.366;2022-11-20T06:24:11;2.53;;;2.33;;
17947;SDS011;9099;47.958;11.366;2022-11-20T06:26:39;2.55;;;2.45;;
17947;SDS011;9099;47.958;11.366;2022-11-20T06:29:06;2.92;;;2.72;;
17947;SDS011;9099;47.958;11.366;2022-11-20T06:31:33;3.28;;;2.97;;
17947;SDS011;9099;47.958;11.366;2022-11-20T06:34:02;3.22;;;3.03;;
17947;SDS011;9099;47.958;11.366;2022-11-20T06:36:30;3.08;;;2.88;;
17947;SDS011;9099;47.958;11.366;2022-11-20T06:38:57;3.30;;;3.10;;
17947;SDS011;9099;47.958;11.366;2022-11-20T06:41:24;3.40;;;3.20;;
17947;SDS011;9099;47.958;11.366;2022-11-20T06:43:52;3.38;;;3.10;;
17947;SDS011;9099;47.958;11.366;2022-11-20T06:46:20;2.90;;;2.70;;
17947;SDS011;9099;47.958;11.366;2022-11-20T06:48:47;3.30;;;3.00;;
17947;SDS011;9099;47.958;11.366;2022-11-20T06:51:14;2.85;;;2.65;;
17947;SDS011;9099;47.958;11.366;2022-11-20T06:53:41;2.33;;;2.13;;
17947;SDS011;9099;47.958;11.366;2022-11-20T06:56:08;2.40;;;2.20;;
17947;SDS011;9099;47.958;11.366;2022-11-20T06:58:35;2.58;;;2.38;;
17947;SDS011;9099;47.958;11.366;2022-11-20T07:01:04;1.92;;;1.83;;
17947;SDS011;9099;47.958;11.366;2022-11-20T07:03:32;2.58;;;2.38;;
17947;SDS011;9099;47.958;11.366;2022-11-20T07:06:00;2.60;;;2.38;;
17947;SDS011;9099;47.958;11.366;2022-11-20T07:08:27;2.75;;;2.55;;
17947;SDS011;9099;47.958;11.366;2022-11-20T07:10:56;2.53;;;2.38;;
17947;SDS011;9099;47.958;11.366;2022-11-20T07:13:24;2.40;;;2.20;;
17947;SDS011;9099;47.958;11.366;2022-11-20T07:15:51;2.20;;;2.08;;
17947;SDS011;9099;47.958;11.366;2022-11-20T07:18:19;2.17;;;2.08;;
17947;SDS011;9099;47.958;11.366;2022-11-20T07:20:46;3.55;;;2.30;;
17947;SDS011;9099;47.958;11.366;2022-11-20T07:23:13;2.30;;;2.20;;
17947;SDS011;9099;47.958;11.366;2022-11-20T07:25:40;2.20;;;2.10;;
17947;SDS011;9099;47.958;11.366;2022-11-20T07:28:07;2.28;;;2.08;;
17947;SDS011;9099;47.958;11.366;2022-11-20T07:30:35;2.30;;;2.10;;
17947;SDS011;9099;47.958;11.366;2022-11-20T07:33:02;2.45;;;2.30;;
17947;SDS011;9099;47.958;11.366;2022-11-20T07:35:31;2.40;;;2.20;;
17947;SDS011;9099;47.958;11.366;2022-11-20T07:37:57;2.33;;;2.00;;
17947;SDS011;9099;47.958;11.366;2022-11-20T07:40:24;2.03;;;1.90;;
17947;SDS011;9099;47.958;11.366;2022-11-20T07:42:51;2.15;;;2.05;;
17947;SDS011;9099;47.958;11.366;2022-11-20T07:45:19;2.00;;;1.90;;
17947;SDS011;9099;47.958;11.366;2022-11-20T07:47:48;2.05;;;1.90;;
17947;SDS011;9099;47.958;11.366;2022-11-20T07:50:15;2.13;;;2.00;;
17947;SDS011;9099;47.958;11.366;2022-11-20T07:52:44;2.05;;;1.95;;
17947;SDS011;9099;47.958;11.366;2022-11-20T07:55:11;2.35;;;1.90;;
17947;SDS011;9099;47.958;11.366;2022-11-20T07:57:38;2.95;;;2.28;;
17947;SDS011;9099;47.958;11.366;2022-11-20T08:00:06;3.85;;;2.00;;
17947;SDS011;9099;47.958;11.366;2022-11-20T08:02:36;2.20;;;2.10;;
17947;SDS011;9099;47.958;11.366;2022-11-20T08:05:04;1.98;;;1.88;;
17947;SDS011;9099;47.958;11.366;2022-11-20T08:07:34;2.00;;;1.90;;
17947;SDS011;9099;47.958;11.366;2022-11-20T08:10:03;2.15;;;1.98;;
17947;SDS011;9099;47.958;11.366;2022-11-20T08:12:31;1.92;;;1.83;;
17947;SDS011;9099;47.958;11.366;2022-11-20T08:15:15;2.05;;;1.90;;
17947;SDS011;9099;47.958;11.366;2022-11-20T08:17:42;1.83;;;1.73;;
17947;SDS011;9099;47.958;11.366;2022-11-20T08:20:09;1.83;;;1.73;;
17947;SDS011;9099;47.958;11.366;2022-11-20T08:22:36;2.05;;;1.63;;
17947;SDS011;9099;47.958;11.366;2022-11-20T08:25:05;2.35;;;2.15;;
17947;SDS011;9099;47.958;11.366;2022-11-20T08:27:32;2.35;;;2.00;;
17947;SDS011;9099;47.958;11.366;2022-11-20T08:29:59;1.70;;;1.60;;
17947;SDS011;9099;47.958;11.366;2022-11-20T08:32:26;3.72;;;1.60;;
17947;SDS011;9099;47.958;11.366;2022-11-20T08:34:53;1.75;;;1.55;;
17947;SDS011;9099;47.958;11.366;2022-11-20T08:37:20;1.77;;;1.67;;
17947;SDS011;9099;47.958;11.366;2022-11-20T08:39:46;2.58;;;2.38;;
17947;SDS011;9099;47.958;11.366;2022-11-20T08:42:15;1.70;;;1.60;;
17947;SDS011;9099;47.958;11.366;2022-11-20T08:44:41;1.70;;;1.48;;
17947;SDS011;9099;47.958;11.366;2022-11-20T08:47:08;1.65;;;1.55;;
17947;SDS011;9099;47.958;11.366;2022-11-20T08:49:35;1.20;;;1.20;;
17947;SDS011;9099;47.958;11.366;2022-11-20T08:52:02;1.48;;;1.38;;
17947;SDS011;9099;47.958;11.366;2022-11-20T08:54:29;1.50;;;1.40;;
17947;SDS011;9099;47.958;11.366;2022-11-20T08:56:56;1.27;;;1.27;;
17947;SDS011;9099;47.958;11.366;2022-11-20T08:59:24;1.40;;;1.30;;
17947;SDS011;9099;47.958;11.366;2022-11-20T09:01:51;1.20;;;1.20;;
17947;SDS011;9099;47.958;11.366;2022-11-20T09:04:17;1.35;;;1.25;;
17947;SDS011;9099;47.958;11.366;2022-11-20T09:06:44;2.00;;;1.20;;
17947;SDS011;9099;47.958;11.366;2022-11-20T09:09:16;1.23;;;1.20;;
17947;SDS011;9099;47.958;11.366;2022-11-20T09:11:43;1.33;;;1.20;;
17947;SDS011;9099;47.958;11.366;2022-11-20T09:14:10;1.40;;;1.30;;
17947;SDS011;9099;47.958;11.366;2022-11-20T09:16:38;1.48;;;1.00;;
17947;SDS011;9099;47.958;11.366;2022-11-20T09:19:05;1.23;;;1.00;;
17947;SDS011;9099;47.958;11.366;2022-11-20T09:21:32;1.30;;;1.20;;
17947;SDS011;9099;47.958;11.366;2022-11-20T09:23:59;1.35;;;1.25;;
17947;SDS011;9099;47.958;11.366;2022-11-20T09:26:26;1.08;;;1.08;;
17947;SDS011;9099;47.958;11.366;2022-11-20T09:28:52;1.30;;;1.15;;
17947;SDS011;9099;47.958;11.366;2022-11-20T09:31:21;1.05;;;0.95;;
17947;SDS011;9099;47.958;11.366;2022-11-20T09:33:52;1.45;;;1.35;;
17947;SDS011;9099;47.958;11.366;2022-11-20T09:36:19;1.33;;;1.23;;
17947;SDS011;9099;47.958;11.366;2022-11-20T09:38:46;4.30;;;3.85;;
17947;SDS011;9099;47.958;11.366;2022-11-20T09:41:19;2.28;;;1.90;;
17947;SDS011;9099;47.958;11.366;2022-11-20T09:44:07;1.23;;;1.20;;
17947;SDS011;9099;47.958;11.366;2022-11-20T09:46:44;2.45;;;2.22;;
17947;SDS011;9099;47.958;11.366;2022-11-20T09:49:22;1.30;;;1.20;;
17947;SDS011;9099;47.958;11.366;2022-11-20T09:51:56;1.10;;;1.00;;
17947;SDS011;9099;47.958;11.366;2022-11-20T09:54:26;1.50;;;1.40;;
17947;SDS011;9099;47.958;11.366;2022-11-20T09:56:58;1.02;;;1.00;;
17947;SDS011;9099;47.958;11.366;2022-11-20T09:59:32;1.60;;;1.13;;
17947;SDS011;9099;47.958;11.366;2022-11-20T10:02:08;1.05;;;1.00;;
17947;SDS011;9099;47.958;11.366;2022-11-20T10:04:51;1.10;;;1.00;;
17947;SDS011;9099;47.958;11.366;2022-11-20T10:07:24;1.17;;;1.08;;
17947;SDS011;9099;47.958;11.366;2022-11-20T10:09:56;1.55;;;0.82;;
17947;SDS011;9099;47.958;11.366;2022-11-20T10:12:26;0.70;;;0.70;;
17947;SDS011;9099;47.958;11.366;2022-11-20T10:15:05;0.70;;;0.70;;
17947;SDS011;9099;47.958;11.366;2022-11-20T10:17:45;0.60;;;0.60;;
17947;SDS011;9099;47.958;11.366;2022-11-20T10:20:24;0.77;;;0.77;;
17947;SDS011;9099;47.958;11.366;2022-11-20T10:23:02;0.95;;;0.88;;
17947;SDS011;9099;47.958;11.366;2022-11-20T10:25:42;0.55;;;0.55;;
17947;SDS011;9099;47.958;11.366;2022-11-20T10:28:19;0.80;;;0.80;;
17947;SDS011;9099;47.958;11.366;2022-11-20T10:30:55;0.73;;;0.70;;
17947;SDS011;9099;47.958;11.366;2022-11-20T10:33:26;1.00;;;0.90;;
17947;SDS011;9099;47.958;11.366;2022-11-20T10:35:58;0.93;;;0.88;;
17947;SDS011;9099;47.958;11.366;2022-11-20T10:38:34;0.77;;;0.77;;
17947;SDS011;9099;47.958;11.366;2022-11-20T10:41:05;2.05;;;0.98;;
17947;SDS011;9099;47.958;11.366;2022-11-20T10:43:52;1.35;;;0.77;;
17947;SDS011;9099;47.958;11.366;2022-11-20T10:46:25;1.02;;;1.02;;
17947;SDS011;9099;47.958;11.366;2022-11-20T10:48:56;0.70;;;0.70;;
17947;SDS011;9099;47.958;11.366;2022-11-20T10:51:30;0.88;;;0.82;;
17947;SDS011;9099;47.958;11.366;2022-11-20T10:54:08;1.80;;;1.60;;
17947;SDS011;9099;47.958;11.366;2022-11-20T10:56:45;0.70;;;0.70;;
17947;SDS011;9099;47.958;11.366;2022-11-20T10:59:35;0.88;;;0.88;;
17947;SDS011;9099;47.958;11.366;2022-11-20T11:02:18;0.70;;;0.70;;
17947;SDS011;9099;47.958;11.366;2022-11-20T11:04:46;0.52;;;0.52;;
17947;SDS011;9099;47.958;11.366;2022-11-20T11:07:17;0.82;;;0.80;;
17947;SDS011;9099;47.958;11.366;2022-11-20T11:09:49;1.17;;;0.80;;
17947;SDS011;9099;47.958;11.366;2022-11-20T11:12:16;0.65;;;0.60;;
17947;SDS011;9099;47.958;11.366;2022-11-20T11:14:46;1.80;;;0.60;;
17947;SDS011;9099;47.958;11.366;2022-11-20T11:17:21;0.43;;;0.43;;
17947;SDS011;9099;47.958;11.366;2022-11-20T11:19:58;0.73;;;0.57;;
17947;SDS011;9099;47.958;11.366;2022-11-20T11:22:33;0.60;;;0.60;;
17947;SDS011;9099;47.958;11.366;2022-11-20T11:25:08;1.30;;;0.80;;
17947;SDS011;9099;47.958;11.366;2022-11-20T11:27:47;1.63;;;0.77;;
17947;SDS011;9099;47.958;11.366;2022-11-20T11:30:15;0.82;;;0.70;;
17947;SDS011;9099;47.958;11.366;2022-11-20T11:32:44;0.70;;;0.70;;
17947;SDS011;9099;47.958;11.366;2022-11-20T11:35:18;0.60;;;0.60;;
17947;SDS011;9099;47.958;11.366;2022-11-20T11:37:52;0.85;;;0.70;;
17947;SDS011;9099;47.958;11.366;2022-11-20T11:40:28;1.17;;;1.10;;
17947;SDS011;9099;47.958;11.366;2022-11-20T11:42:58;0.60;;;0.60;;
17947;SDS011;9099;47.958;11.366;2022-11-20T11:45:27;1.25;;;1.15;;
17947;SDS011;9099;47.958;11.366;2022-11-20T11:47:54;1.27;;;1.00;;
17947;SDS011;9099;47.958;11.366;2022-11-20T11:50:23;1.33;;;1.30;;
17947;SDS011;9099;47.958;11.366;2022-11-20T11:53:03;0.82;;;0.82;;
17947;SDS011;9099;47.958;11.366;2022-11-20T11:55:36;1.00;;;0.93;;
17947;SDS011;9099;47.958;11.366;2022-11-20T11:58:11;1.33;;;0.90;;
17947;SDS011;9099;47.958;11.366;2022-11-20T12:00:49;1.65;;;1.55;;
17947;SDS011;9099;47.958;11.366;2022-11-20T12:03:21;1.23;;;1.13;;
17947;SDS011;9099;47.958;11.366;2022-11-20T12:05:55;0.80;;;0.80;;
17947;SDS011;9099;47.958;11.366;2022-11-20T12:08:27;1.02;;;0.93;;
17947;SDS011;9099;47.958;11.366;2022-11-20T12:11:00;0.70;;;0.70;;
17947;SDS011;9099;47.958;11.366;2022-11-20T12:13:37;1.35;;;1.10;;
17947;SDS011;9099;47.958;11.366;2022-11-20T12:16:10;0.73;;;0.73;;
17947;SDS011;9099;47.958;11.366;2022-11-20T12:18:39;0.88;;;0.88;;
17947;SDS011;9099;47.958;11.366;2022-11-20T12:21:11;0.80;;;0.80;;
17947;SDS011;9099;47.958;11.366;2022-11-20T12:23:48;0.77;;;0.77;;
17947;SDS011;9099;47.958;11.366;2022-11-20T12:26:29;0.77;;;0.77;;
17947;SDS011;9099;47.958;11.366;2022-11-20T12:29:07;1.73;;;0.90;;
17947;SDS011;9099;47.958;11.366;2022-11-20T12:31:45;0.90;;;0.70;;
17947;SDS011;9099;47.958;11.366;2022-11-20T12:34:35;1.05;;;0.80;;
17947;SDS011;9099;47.958;11.366;2022-11-20T12:37:16;1.05;;;0.90;;
17947;SDS011;9099;47.958;11.366;2022-11-20T12:39:55;0.75;;;0.75;;
17947;SDS011;9099;47.958;11.366;2022-11-20T12:42:37;0.90;;;0.90;;
17947;SDS011;9099;47.958;11.366;2022-11-20T12:45:50;1.10;;;1.10;;
17947;SDS011;9099;47.958;11.366;2022-11-20T12:48:37;0.90;;;0.90;;
17947;SDS011;9099;47.958;11.366;2022-11-20T12:54:24;1.02;;;1.02;;
17947;SDS011;9099;47.958;11.366;2022-11-20T12:57:04;1.25;;;1.15;;
17947;SDS011;9099;47.958;11.366;2022-11-20T12:59:43;4.80;;;4.30;;
17947;SDS011;9099;47.958;11.366;2022-11-20T13:02:22;1.58;;;1.10;;
17947;SDS011;9099;47.958;11.366;2022-11-20T13:04:57;0.68;;;0.65;;
17947;SDS011;9099;47.958;11.366;2022-11-20T13:07:35;0.80;;;0.80;;
17947;SDS011;9099;47.958;11.366;2022-11-20T13:10:02;1.00;;;1.00;;
17947;SDS011;9099;47.958;11.366;2022-11-20T13:12:34;0.80;;;0.80;;
17947;SDS011;9099;47.958;11.366;2022-11-20T13:15:07;1.45;;;1.02;;
17947;SDS011;9099;47.958;11.366;2022-11-20T13:17:45;1.45;;;0.98;;
17947;SDS011;9099;47.958;11.366;2022-11-20T13:20:17;1.30;;;1.23;;
17947;SDS011;9099;47.958;11.366;2022-11-20T13:22:45;1.75;;;1.65;;
17947;SDS011;9099;47.958;11.366;2022-11-20T13:25:23;1.00;;;1.00;;
17947;SDS011;9099;47.958;11.366;2022-11-20T13:27:52;1.10;;;1.00;;
17947;SDS011;9099;47.958;11.366;2022-11-20T13:30:20;1.02;;;0.98;;
17947;SDS011;9099;47.958;11.366;2022-11-20T13:32:49;1.65;;;1.38;;
17947;SDS011;9099;47.958;11.366;2022-11-20T13:35:28;1.60;;;1.50;;
17947;SDS011;9099;47.958;11.366;2022-11-20T13:38:00;1.48;;;1.30;;
17947;SDS011;9099;47.958;11.366;2022-11-20T13:40:30;1.50;;;1.40;;
17947;SDS011;9099;47.958;11.366;2022-11-20T13:43:04;1.20;;;1.20;;
17947;SDS011;9099;47.958;11.366;2022-11-20T13:45:37;2.75;;;2.17;;
17947;SDS011;9099;47.958;11.366;2022-11-20T13:48:15;1.90;;;1.80;;
17947;SDS011;9099;47.958;11.366;2022-11-20T13:50:49;1.35;;;1.25;;
17947;SDS011;9099;47.958;11.366;2022-11-20T13:53:32;1.00;;;1.00;;
17947;SDS011;9099;47.958;11.366;2022-11-20T13:56:09;1.17;;;1.08;;
17947;SDS011;9099;47.958;11.366;2022-11-20T13:58:47;1.35;;;1.20;;
17947;SDS011;9099;47.958;11.366;2022-11-20T14:01:19;0.95;;;0.85;;
17947;SDS011;9099;47.958;11.366;2022-11-20T14:03:47;0.90;;;0.90;;
17947;SDS011;9099;47.958;11.366;2022-11-20T14:06:16;1.42;;;1.20;;
17947;SDS011;9099;47.958;11.366;2022-11-20T14:08:52;2.00;;;1.60;;
17947;SDS011;9099;47.958;11.366;2022-11-20T14:11:20;1.20;;;0.95;;
17947;SDS011;9099;47.958;11.366;2022-11-20T14:13:57;1.00;;;0.90;;
17947;SDS011;9099;47.958;11.366;2022-11-20T14:16:26;0.90;;;0.77;;
17947;SDS011;9099;47.958;11.366;2022-11-20T14:18:55;1.20;;;1.17;;
17947;SDS011;9099;47.958;11.366;2022-11-20T14:21:24;1.00;;;0.82;;
17947;SDS011;9099;47.958;11.366;2022-11-20T14:23:52;1.10;;;1.00;;
17947;SDS011;9099;47.958;11.366;2022-11-20T14:26:20;1.10;;;0.93;;
17947;SDS011;9099;47.958;11.366;2022-11-20T14:28:48;1.17;;;1.10;;
17947;SDS011;9099;47.958;11.366;2022-11-20T14:31:21;0.90;;;0.90;;
17947;SDS011;9099;47.958;11.366;2022-11-20T14:33:50;1.00;;;1.00;;
17947;SDS011;9099;47.958;11.366;2022-11-20T14:36:19;1.30;;;1.20;;
17947;SDS011;9099;47.958;11.366;2022-11-20T14:38:48;1.58;;;1.30;;
17947;SDS011;9099;47.958;11.366;2022-11-20T14:41:16;0.80;;;0.80;;
17947;SDS011;9099;47.958;11.366;2022-11-20T14:43:45;1.35;;;1.23;;
17947;SDS011;9099;47.958;11.366;2022-11-20T14:46:13;1.70;;;1.60;;
17947;SDS011;9099;47.958;11.366;2022-11-20T14:48:43;0.80;;;0.80;;
17947;SDS011;9099;47.958;11.366;2022-11-20T14:51:22;1.63;;;1.52;;
17947;SDS011;9099;47.958;11.366;2022-11-20T14:53:53;0.75;;;0.75;;
17947;SDS011;9099;47.958;11.366;2022-11-20T14:56:20;0.82;;;0.80;;
17947;SDS011;9099;47.958;11.366;2022-11-20T14:58:55;0.95;;;0.90;;
17947;SDS011;9099;47.958;11.366;2022-11-20T15:01:25;1.38;;;1.27;;
17947;SDS011;9099;47.958;11.366;2022-11-20T15:03:59;0.80;;;0.80;;
17947;SDS011;9099;47.958;11.366;2022-11-20T15:06:27;0.90;;;0.90;;
17947;SDS011;9099;47.958;11.366;2022-11-20T15:08:56;1.67;;;1.58;;
17947;SDS011;9099;47.958;11.366;2022-11-20T15:11:25;0.90;;;0.90;;